createdAt,value
2022-09-06T00:01:04.710Z,17.262573
2022-09-06T00:02:12.397Z,17.262573
2022-09-06T00:03:21.107Z,17.242432
2022-09-06T00:04:30.846Z,17.232361
2022-09-06T00:05:38.551Z,17.22229
2022-09-06T00:06:48.201Z,17.232361
2022-09-06T00:07:56.882Z,17.262573
2022-09-06T00:09:04.572Z,17.232361
2022-09-06T00:10:14.295Z,17.232361
2022-09-06T00:11:22.967Z,17.22229
2022-09-06T00:12:31.637Z,17.161865
2022-09-06T00:13:41.316Z,17.161865
2022-09-06T00:14:48.982Z,17.141724
2022-09-06T00:15:58.782Z,17.121582
2022-09-06T00:17:07.471Z,17.111511
2022-09-06T00:18:17.148Z,17.081299
2022-09-06T00:19:25.850Z,17.051086
2022-09-06T00:20:33.576Z,17.020874
2022-09-06T00:21:43.213Z,17.010803
2022-09-06T00:22:50.923Z,17.010803
2022-09-06T00:24:00.583Z,16.990662
2022-09-06T00:25:10.305Z,16.960449
2022-09-06T00:26:17.937Z,16.930237
2022-09-06T00:27:27.591Z,16.910095
2022-09-06T00:28:37.275Z,16.889954
2022-09-06T00:29:44.934Z,16.859741
2022-09-06T00:30:54.635Z,16.809387
2022-09-06T00:32:03.276Z,16.809387
2022-09-06T00:33:11.949Z,16.779175
2022-09-06T00:34:21.656Z,16.779175
2022-09-06T00:35:30.328Z,16.748962
2022-09-06T00:36:39.995Z,16.738892
2022-09-06T00:37:49.658Z,16.71875
2022-09-06T00:38:57.305Z,16.738892
2022-09-06T00:40:07.056Z,16.708679
2022-09-06T00:41:15.653Z,16.708679
2022-09-06T00:42:24.332Z,16.708679
2022-09-06T00:43:34.021Z,16.71875
2022-09-06T00:44:41.672Z,16.71875
2022-09-06T00:45:51.430Z,16.688538
2022-09-06T00:47:00.088Z,16.678467
2022-09-06T00:48:08.821Z,16.688538
2022-09-06T00:49:18.501Z,16.678467
2022-09-06T00:50:26.181Z,16.688538
2022-09-06T00:51:34.896Z,16.678467
2022-09-06T00:52:44.566Z,16.688538
2022-09-06T00:53:53.274Z,16.658325
2022-09-06T00:55:02.977Z,16.638184
2022-09-06T00:56:11.621Z,16.638184
2022-09-06T00:57:19.291Z,16.5979
2022-09-06T00:58:29.052Z,16.577759
2022-09-06T00:59:36.624Z,16.567688
2022-09-06T01:00:45.287Z,16.567688
2022-09-06T01:01:55.083Z,16.567688
2022-09-06T01:03:03.695Z,16.537476
2022-09-06T01:04:13.368Z,16.557617
2022-09-06T01:05:22.025Z,16.557617
2022-09-06T01:06:29.704Z,16.557617
2022-09-06T01:07:40.374Z,16.527405
2022-09-06T01:08:49.188Z,16.527405
2022-09-06T01:09:57.859Z,16.497192
2022-09-06T01:11:07.561Z,16.507263
2022-09-06T01:12:15.217Z,16.487122
2022-09-06T01:13:24.926Z,16.497192
2022-09-06T01:14:34.616Z,16.487122
2022-09-06T01:15:42.360Z,16.497192
2022-09-06T01:16:50.984Z,16.46698
2022-09-06T01:17:58.668Z,16.487122
2022-09-06T01:19:08.334Z,16.487122
2022-09-06T01:20:18.062Z,16.497192
2022-09-06T01:21:26.738Z,16.497192
2022-09-06T01:22:36.410Z,16.487122
2022-09-06T01:23:45.099Z,16.497192
2022-09-06T01:24:52.759Z,16.497192
2022-09-06T01:26:02.573Z,16.46698
2022-09-06T01:27:10.248Z,16.46698
2022-09-06T01:28:17.924Z,16.456909
2022-09-06T01:29:27.604Z,16.46698
2022-09-06T01:30:36.320Z,16.416626
2022-09-06T01:31:45.989Z,16.456909
2022-09-06T01:32:54.718Z,16.456909
2022-09-06T01:34:03.416Z,16.456909
2022-09-06T01:35:13.079Z,16.456909
2022-09-06T01:36:20.737Z,16.456909
2022-09-06T01:37:29.438Z,16.426697
2022-09-06T01:38:39.156Z,16.406555
2022-09-06T01:39:46.897Z,16.356201
2022-09-06T01:40:56.503Z,16.356201
2022-09-06T01:42:06.211Z,16.275635
2022-09-06T01:43:14.897Z,16.275635
2022-09-06T01:44:25.587Z,16.225281
2022-09-06T01:45:34.232Z,16.205139
2022-09-06T01:46:42.950Z,16.174927
2022-09-06T01:47:52.636Z,16.174927
2022-09-06T01:49:01.330Z,16.174927
2022-09-06T01:50:11.047Z,16.195068
2022-09-06T01:51:19.738Z,16.164856
2022-09-06T01:52:28.462Z,16.154785
2022-09-06T01:53:38.149Z,16.134644
2022-09-06T01:54:46.827Z,16.124573
2022-09-06T01:55:56.497Z,16.09436
2022-09-06T01:57:06.206Z,16.044006
2022-09-06T01:58:14.872Z,16.023865
2022-09-06T01:59:24.588Z,16.013794
2022-09-06T02:00:33.333Z,15.973511
2022-09-06T02:01:42.069Z,15.983582
2022-09-06T02:02:51.881Z,15.953369
2022-09-06T02:03:59.422Z,15.973511
2022-09-06T02:05:09.116Z,15.943298
2022-09-06T02:06:18.854Z,15.913086
2022-09-06T02:07:27.542Z,15.903015
2022-09-06T02:08:37.176Z,15.882874
2022-09-06T02:09:45.838Z,15.84259
2022-09-06T02:10:53.486Z,15.83252
2022-09-06T02:12:03.187Z,15.792236
2022-09-06T02:13:10.854Z,15.772095
2022-09-06T02:14:19.525Z,15.762024
2022-09-06T02:15:27.203Z,15.731812
2022-09-06T02:16:36.903Z,15.721741
2022-09-06T02:17:47.518Z,15.701599
2022-09-06T02:18:56.199Z,15.681458
2022-09-06T02:20:05.896Z,15.681458
2022-09-06T02:21:14.587Z,15.671387
2022-09-06T02:22:22.287Z,15.681458
2022-09-06T02:23:32.010Z,15.671387
2022-09-06T02:24:40.668Z,15.641174
2022-09-06T02:25:49.360Z,15.621033
2022-09-06T02:26:59.046Z,15.610962
2022-09-06T02:28:06.723Z,15.59082
2022-09-06T02:29:16.512Z,15.570679
2022-09-06T02:30:25.236Z,15.540466
2022-09-06T02:31:33.906Z,15.540466
2022-09-06T02:32:43.578Z,15.510254
2022-09-06T02:33:51.270Z,15.490112
2022-09-06T02:34:59.943Z,15.4599
2022-09-06T02:36:09.592Z,15.439758
2022-09-06T02:37:19.293Z,15.429688
2022-09-06T02:38:28.997Z,15.419617
2022-09-06T02:39:37.686Z,15.419617
2022-09-06T02:40:46.344Z,15.429688
2022-09-06T02:41:56.071Z,15.429688
2022-09-06T02:43:03.739Z,15.429688
2022-09-06T02:44:12.429Z,15.439758
2022-09-06T02:45:22.112Z,15.4599
2022-09-06T02:46:30.875Z,15.429688
2022-09-06T02:47:40.478Z,15.419617
2022-09-06T02:48:49.134Z,15.419617
2022-09-06T02:49:56.819Z,15.399475
2022-09-06T02:51:06.514Z,15.389404
2022-09-06T02:52:15.222Z,15.369263
2022-09-06T02:53:22.923Z,15.359192
2022-09-06T02:54:32.779Z,15.359192
2022-09-06T02:55:41.440Z,15.369263
2022-09-06T02:56:52.339Z,15.359192
2022-09-06T02:58:00.825Z,15.359192
2022-09-06T02:59:09.485Z,15.389404
2022-09-06T03:00:19.161Z,15.389404
2022-09-06T03:01:27.890Z,15.419617
2022-09-06T03:02:36.566Z,15.419617
2022-09-06T03:03:46.227Z,15.419617
2022-09-06T03:04:53.881Z,15.419617
2022-09-06T03:06:03.537Z,15.399475
2022-09-06T03:07:12.248Z,15.369263
2022-09-06T03:08:19.920Z,15.359192
2022-09-06T03:09:29.609Z,15.359192
2022-09-06T03:10:38.289Z,15.369263
2022-09-06T03:11:47.963Z,15.359192
2022-09-06T03:12:57.661Z,15.349121
2022-09-06T03:14:05.338Z,15.349121
2022-09-06T03:15:15.116Z,15.359192
2022-09-06T03:16:24.828Z,15.369263
2022-09-06T03:17:33.462Z,15.369263
2022-09-06T03:18:43.114Z,15.369263
2022-09-06T03:19:51.840Z,15.369263
2022-09-06T03:21:01.519Z,15.369263
2022-09-06T03:22:11.230Z,15.369263
2022-09-06T03:23:18.919Z,15.369263
2022-09-06T03:24:28.585Z,15.399475
2022-09-06T03:25:37.267Z,15.399475
2022-09-06T03:26:44.937Z,15.399475
2022-09-06T03:27:54.651Z,15.389404
2022-09-06T03:29:02.376Z,15.389404
2022-09-06T03:30:11.038Z,15.369263
2022-09-06T03:31:20.740Z,15.359192
2022-09-06T03:32:29.414Z,15.359192
2022-09-06T03:33:39.068Z,15.328979
2022-09-06T03:34:48.861Z,15.308838
2022-09-06T03:35:56.512Z,15.268555
2022-09-06T03:37:06.180Z,15.218201
2022-09-06T03:38:13.872Z,15.218201
2022-09-06T03:39:23.604Z,15.177917
2022-09-06T03:40:33.251Z,15.187988
2022-09-06T03:41:41.930Z,15.167847
2022-09-06T03:42:51.608Z,15.107422
2022-09-06T03:44:00.343Z,15.067139
2022-09-06T03:45:10.029Z,15.067139
2022-09-06T03:46:19.764Z,15.067139
2022-09-06T03:47:27.397Z,15.08728
2022-09-06T03:48:36.077Z,15.057068
2022-09-06T03:49:45.781Z,15.036926
2022-09-06T03:50:53.427Z,15.026855
2022-09-06T03:52:03.188Z,15.026855
2022-09-06T03:53:11.870Z,15.026855
2022-09-06T03:54:19.614Z,14.996643
2022-09-06T03:55:29.346Z,14.966431
2022-09-06T03:56:38.024Z,14.966431
2022-09-06T03:57:45.681Z,14.936218
2022-09-06T03:58:55.343Z,14.906006
2022-09-06T04:00:04.084Z,14.855652
2022-09-06T04:01:13.829Z,14.875793
2022-09-06T04:02:21.493Z,14.875793
2022-09-06T04:03:30.118Z,14.875793
2022-09-06T04:04:39.838Z,14.845581
2022-09-06T04:05:48.513Z,14.805298
2022-09-06T04:06:57.227Z,14.765015
2022-09-06T04:08:05.895Z,14.70459
2022-09-06T04:09:13.527Z,14.684448
2022-09-06T04:10:23.188Z,14.664307
2022-09-06T04:11:31.881Z,14.634094
2022-09-06T04:12:42.558Z,14.603882
2022-09-06T04:13:51.229Z,14.603882
2022-09-06T04:15:00.899Z,14.603882
2022-09-06T04:16:10.589Z,14.593811
2022-09-06T04:17:18.227Z,14.624023
2022-09-06T04:18:28.161Z,14.603882
2022-09-06T04:19:37.681Z,14.603882
2022-09-06T04:20:47.357Z,14.624023
2022-09-06T04:21:57.037Z,14.664307
2022-09-06T04:23:05.701Z,14.654236
2022-09-06T04:24:14.452Z,14.694519
2022-09-06T04:25:24.119Z,14.694519
2022-09-06T04:26:31.899Z,14.765015
2022-09-06T04:27:40.628Z,14.765015
2022-09-06T04:28:50.287Z,14.765015
2022-09-06T04:29:58.975Z,14.785156
2022-09-06T04:31:08.631Z,14.815369
2022-09-06T04:32:17.288Z,14.805298
2022-09-06T04:33:24.970Z,14.805298
2022-09-06T04:34:34.624Z,14.815369
2022-09-06T04:35:44.486Z,14.906006
2022-09-06T04:36:52.151Z,14.875793
2022-09-06T04:38:01.831Z,14.875793
2022-09-06T04:39:09.475Z,14.855652
2022-09-06T04:40:19.171Z,14.855652
2022-09-06T04:41:28.904Z,14.936218
2022-09-06T04:42:36.550Z,15.057068
2022-09-06T04:43:45.219Z,15.026855
2022-09-06T04:44:52.892Z,15.057068
2022-09-06T04:46:01.658Z,15.057068
2022-09-06T04:47:11.279Z,15.016785
2022-09-06T04:48:19.967Z,14.986572
2022-09-06T04:49:29.665Z,15.036926
2022-09-06T04:50:38.322Z,15.016785
2022-09-06T04:51:45.967Z,14.996643
2022-09-06T04:52:55.702Z,14.95636
2022-09-06T04:54:03.399Z,14.936218
2022-09-06T04:55:13.061Z,14.885864
2022-09-06T04:56:22.780Z,14.875793
2022-09-06T04:57:31.425Z,14.875793
2022-09-06T04:58:41.159Z,14.885864
2022-09-06T04:59:49.852Z,14.916077
2022-09-06T05:00:59.705Z,14.906006
2022-09-06T05:02:09.400Z,14.916077
2022-09-06T05:03:18.000Z,14.95636
2022-09-06T05:04:26.674Z,14.966431
2022-09-06T05:05:36.335Z,14.936218
2022-09-06T05:06:43.987Z,14.916077
2022-09-06T05:07:53.660Z,14.936218
2022-09-06T05:09:03.333Z,14.966431
2022-09-06T05:10:13.035Z,14.966431
2022-09-06T05:11:21.728Z,14.986572
2022-09-06T05:12:31.430Z,14.986572
2022-09-06T05:13:41.132Z,14.996643
2022-09-06T05:14:48.818Z,15.016785
2022-09-06T05:15:58.629Z,15.036926
2022-09-06T05:17:07.280Z,15.097351
2022-09-06T05:18:16.962Z,15.147705
2022-09-06T05:19:25.641Z,15.20813
2022-09-06T05:20:34.343Z,15.248413
2022-09-06T05:21:44.063Z,15.248413
2022-09-06T05:22:53.717Z,15.278625
2022-09-06T05:24:02.432Z,15.328979
2022-09-06T05:25:12.114Z,15.308838
2022-09-06T05:26:20.792Z,15.308838
2022-09-06T05:27:30.521Z,15.308838
2022-09-06T05:28:40.200Z,15.349121
2022-09-06T05:29:49.860Z,15.429688
2022-09-06T05:30:59.538Z,15.469971
2022-09-06T05:32:08.282Z,15.520325
2022-09-06T05:33:16.933Z,15.570679
2022-09-06T05:34:26.658Z,15.58075
2022-09-06T05:35:34.357Z,15.671387
2022-09-06T05:36:42.990Z,15.731812
2022-09-06T05:37:52.658Z,15.762024
2022-09-06T05:39:02.475Z,15.792236
2022-09-06T05:40:12.209Z,15.822449
2022-09-06T05:41:20.832Z,15.923157
2022-09-06T05:42:29.521Z,15.983582
2022-09-06T05:43:39.208Z,15.973511
2022-09-06T05:44:48.920Z,15.983582
2022-09-06T05:45:58.623Z,15.973511
2022-09-06T05:47:08.258Z,15.983582
2022-09-06T05:48:15.913Z,15.983582
2022-09-06T05:49:25.585Z,16.013794
2022-09-06T05:50:34.334Z,16.023865
2022-09-06T05:51:42.007Z,16.054077
2022-09-06T05:52:51.745Z,16.054077
2022-09-06T05:54:00.405Z,16.124573
2022-09-06T05:55:10.083Z,16.154785
2022-09-06T05:56:18.786Z,16.195068
2022-09-06T05:57:26.451Z,16.235352
2022-09-06T05:58:36.108Z,16.315918
2022-09-06T05:59:44.764Z,16.356201
2022-09-06T06:00:52.447Z,16.416626
2022-09-06T06:02:05.441Z,16.487122
2022-09-06T06:03:11.798Z,16.557617
2022-09-06T06:04:20.493Z,16.577759
2022-09-06T06:05:30.232Z,16.678467
2022-09-06T06:06:37.907Z,16.71875
2022-09-06T06:07:47.589Z,16.738892
2022-09-06T06:08:57.269Z,16.738892
2022-09-06T06:10:06.934Z,16.759033
2022-09-06T06:11:15.595Z,16.789246
2022-09-06T06:12:23.268Z,16.829529
2022-09-06T06:13:31.973Z,16.869812
2022-09-06T06:14:40.674Z,16.900024
2022-09-06T06:15:49.368Z,16.930237
2022-09-06T06:17:00.066Z,16.930237
2022-09-06T06:18:07.658Z,16.940308
2022-09-06T06:19:17.436Z,16.97052
2022-09-06T06:20:26.092Z,16.960449
2022-09-06T06:21:33.780Z,16.97052
2022-09-06T06:22:43.417Z,17.010803
2022-09-06T06:23:51.081Z,17.020874
2022-09-06T06:24:59.781Z,17.051086
2022-09-06T06:26:09.446Z,17.09137
2022-09-06T06:27:19.111Z,17.121582
2022-09-06T06:28:29.032Z,17.121582
2022-09-06T06:29:37.516Z,17.161865
2022-09-06T06:30:45.282Z,17.202148
2022-09-06T06:31:55.045Z,17.262573
2022-09-06T06:33:02.605Z,17.302856
2022-09-06T06:34:11.295Z,17.383423
2022-09-06T06:35:20.956Z,17.443848
2022-09-06T06:36:29.640Z,17.514343
2022-09-06T06:37:39.334Z,17.59491
2022-09-06T06:38:48.007Z,17.665405
2022-09-06T06:39:55.705Z,17.776184
2022-09-06T06:41:06.925Z,17.826538
2022-09-06T06:42:14.036Z,17.937317
2022-09-06T06:43:22.689Z,18.007812
2022-09-06T06:44:32.362Z,18.09845
2022-09-06T06:45:41.052Z,18.189087
2022-09-06T06:46:50.675Z,18.289795
2022-09-06T06:47:59.430Z,18.35022
2022-09-06T06:49:08.135Z,18.430786
2022-09-06T06:50:17.821Z,18.471069
2022-09-06T06:51:25.480Z,18.521423
2022-09-06T06:52:34.126Z,18.581848
2022-09-06T06:53:43.837Z,18.591919
2022-09-06T06:54:53.500Z,18.652344
2022-09-06T06:56:03.177Z,18.702698
2022-09-06T06:57:11.858Z,18.742981
2022-09-06T06:58:20.524Z,18.773193
2022-09-06T06:59:30.216Z,18.813477
2022-09-06T07:00:37.932Z,18.843689
2022-09-06T07:01:46.651Z,18.904114
2022-09-06T07:02:56.220Z,18.954468
2022-09-06T07:04:04.870Z,18.994751
2022-09-06T07:07:35.571Z,19.155884
2022-09-06T07:08:44.550Z,19.206238
2022-09-06T07:11:02.889Z,19.3573
2022-09-06T07:12:12.541Z,19.468079
2022-09-06T07:13:21.377Z,19.538574
2022-09-06T07:14:30.892Z,19.659424
2022-09-06T07:15:40.567Z,19.760132
2022-09-06T07:16:48.354Z,19.880981
2022-09-06T07:17:57.976Z,20.032043
2022-09-06T07:19:05.938Z,20.223389
2022-09-06T07:20:16.514Z,20.444946
2022-09-06T07:21:41.352Z,20.61615
2022-09-06T07:22:36.575Z,20.696716
2022-09-06T07:24:54.869Z,21.029053
2022-09-06T07:26:03.548Z,21.109619
2022-09-06T07:28:23.944Z,21.270752
2022-09-06T07:29:33.567Z,21.24054
2022-09-06T07:30:43.226Z,21.220398
2022-09-06T07:33:02.538Z,21.200256
2022-09-06T07:34:12.226Z,21.149902
2022-09-06T07:35:20.890Z,21.170044
2022-09-06T07:36:30.556Z,21.200256
2022-09-06T07:37:40.232Z,21.139832
2022-09-06T07:38:47.901Z,21.069336
2022-09-06T07:39:57.666Z,21.069336
2022-09-06T07:41:05.325Z,20.99884
2022-09-06T07:42:15.008Z,20.98877
2022-09-06T07:43:24.708Z,20.99884
2022-09-06T07:44:32.392Z,20.968628
2022-09-06T07:45:42.235Z,20.98877
2022-09-06T07:46:50.934Z,20.99884
2022-09-06T07:48:01.590Z,20.948486
2022-09-06T07:49:11.287Z,20.918274
2022-09-06T07:51:29.708Z,20.877991
2022-09-06T07:53:50.491Z,20.797424
2022-09-06T07:55:00.800Z,20.716858
2022-09-06T07:56:09.499Z,20.696716
2022-09-06T07:57:18.202Z,20.646362
2022-09-06T07:58:27.865Z,20.555725
2022-09-06T07:59:39.004Z,20.515442
2022-09-06T08:00:45.291Z,20.505371
2022-09-06T08:01:55.019Z,20.465088
2022-09-06T08:03:02.693Z,20.444946
2022-09-06T08:04:12.365Z,20.404663
2022-09-06T08:07:43.292Z,20.374451
2022-09-06T08:10:02.657Z,20.324097
2022-09-06T08:11:10.307Z,20.283813
2022-09-06T08:12:19.983Z,20.263672
2022-09-06T08:13:30.717Z,20.263672
2022-09-06T08:14:38.427Z,20.283813
2022-09-06T08:15:48.111Z,20.324097
2022-09-06T08:16:57.806Z,20.394592
2022-09-06T08:18:06.481Z,20.434875
2022-09-06T08:19:16.137Z,20.374451
2022-09-06T08:20:23.845Z,20.36438
2022-09-06T08:21:33.531Z,20.444946
2022-09-06T08:22:43.187Z,20.555725
2022-09-06T08:23:51.862Z,20.646362
2022-09-06T08:25:01.531Z,20.696716
2022-09-06T08:26:10.254Z,20.797424
2022-09-06T08:27:17.934Z,20.777283
2022-09-06T08:28:28.873Z,20.807495
2022-09-06T08:29:36.277Z,20.928345
2022-09-06T08:30:44.939Z,21.109619
2022-09-06T08:31:54.718Z,21.180115
2022-09-06T08:33:04.314Z,21.351318
2022-09-06T08:34:14.001Z,21.572876
2022-09-06T08:35:22.720Z,21.693726
2022-09-06T08:36:30.400Z,21.804504
2022-09-06T08:37:40.117Z,21.975708
2022-09-06T08:38:48.829Z,22.076416
2022-09-06T08:39:57.548Z,22.106628
2022-09-06T08:41:07.178Z,22.197266
2022-09-06T08:42:14.866Z,22.277832
2022-09-06T08:43:24.559Z,22.25769
2022-09-06T08:45:43.861Z,22.197266
2022-09-06T08:46:54.641Z,22.177124
2022-09-06T08:48:03.277Z,22.146912
2022-09-06T08:49:12.044Z,22.197266
2022-09-06T08:50:21.714Z,22.277832
2022-09-06T08:51:30.550Z,22.277832
2022-09-06T08:52:45.557Z,22.25769
2022-09-06T08:53:50.637Z,22.287903
2022-09-06T08:54:58.336Z,22.348328
2022-09-06T08:56:07.987Z,22.388611
2022-09-06T08:57:16.662Z,22.438965
2022-09-06T08:58:25.320Z,22.50946
2022-09-06T08:59:34.010Z,22.549744
2022-09-06T09:00:42.836Z,22.620239
2022-09-06T09:01:52.544Z,22.690735
2022-09-06T09:03:01.148Z,22.650452
2022-09-06T09:04:10.835Z,22.590027
2022-09-06T09:05:20.493Z,22.620239
2022-09-06T09:06:28.211Z,22.569885
2022-09-06T09:07:36.896Z,22.590027
2022-09-06T09:08:46.561Z,22.549744
2022-09-06T09:09:56.271Z,22.569885
2022-09-06T09:11:05.934Z,22.529602
2022-09-06T09:12:14.669Z,22.539673
2022-09-06T09:13:24.325Z,22.590027
2022-09-06T09:14:33.980Z,22.660522
2022-09-06T09:15:41.635Z,22.720947
2022-09-06T09:16:51.294Z,22.781372
2022-09-06T09:18:02.092Z,22.841797
2022-09-06T09:19:10.777Z,22.88208
2022-09-06T09:20:20.466Z,22.872009
2022-09-06T09:21:30.809Z,22.912292
2022-09-06T09:22:37.792Z,22.841797
2022-09-06T09:23:47.548Z,22.851868
2022-09-06T09:24:57.240Z,22.872009
2022-09-06T09:26:06.939Z,22.801514
2022-09-06T09:27:16.594Z,22.720947
2022-09-06T09:28:24.375Z,22.700806
2022-09-06T09:29:36.348Z,22.690735
2022-09-06T09:31:54.612Z,22.620239
2022-09-06T09:33:02.254Z,22.569885
2022-09-06T09:34:09.940Z,22.600098
2022-09-06T09:35:18.646Z,22.781372
2022-09-06T09:36:28.388Z,22.992859
2022-09-06T09:37:52.026Z,23.093567
2022-09-06T09:38:44.797Z,23.234558
2022-09-06T09:39:54.496Z,23.274841
2022-09-06T09:41:03.216Z,23.204346
2022-09-06T09:42:12.903Z,23.214417
2022-09-06T09:43:20.578Z,23.315125
2022-09-06T09:44:29.277Z,23.435974
2022-09-06T09:45:38.937Z,23.657532
2022-09-06T09:46:47.710Z,23.989868
2022-09-06T09:47:57.358Z,24.26178
2022-09-06T09:49:06.048Z,24.362488
2022-09-06T09:50:13.750Z,24.362488
2022-09-06T09:51:26.882Z,24.453125
2022-09-06T09:52:33.229Z,24.725037
2022-09-06T09:53:41.908Z,24.845886
2022-09-06T09:54:51.577Z,24.755249
2022-09-06T09:55:59.237Z,24.584045
2022-09-06T09:57:11.666Z,24.483337
2022-09-06T09:58:18.680Z,24.3927
2022-09-06T09:59:26.361Z,24.332275
2022-09-06T10:00:36.083Z,24.3927
2022-09-06T10:01:44.744Z,24.211426
2022-09-06T10:02:54.409Z,24.211426
2022-09-06T10:05:14.783Z,24.110718
2022-09-06T10:07:35.107Z,24.01001
2022-09-06T10:08:44.784Z,24.181213
2022-09-06T10:09:54.493Z,24.362488
2022-09-06T10:11:04.211Z,24.553833
2022-09-06T10:12:13.897Z,24.604187
2022-09-06T10:13:21.586Z,24.775391
2022-09-06T10:14:30.230Z,24.886169
2022-09-06T10:15:40.019Z,24.906311
2022-09-06T10:16:47.623Z,24.876099
2022-09-06T10:17:57.286Z,24.533691
2022-09-06T10:19:07.014Z,24.302063
2022-09-06T10:20:15.662Z,24.362488
2022-09-06T10:21:25.366Z,24.432983
2022-09-06T10:22:35.041Z,24.483337
2022-09-06T10:24:54.409Z,24.704895
2022-09-06T10:26:02.088Z,24.906311
2022-09-06T10:27:11.822Z,25.097656
2022-09-06T10:28:20.516Z,25.218506
2022-09-06T10:29:30.231Z,25.409851
2022-09-06T10:30:39.922Z,25.591125
2022-09-06T10:31:47.681Z,25.601196
2022-09-06T10:32:56.381Z,25.691833
2022-09-06T10:34:06.055Z,25.7724
2022-09-06T10:35:14.781Z,25.983887
2022-09-06T10:36:24.471Z,26.15509
2022-09-06T10:37:33.153Z,26.356506
2022-09-06T10:38:41.898Z,26.437073
2022-09-06T10:39:51.558Z,26.517639
2022-09-06T10:40:59.195Z,26.749268
2022-09-06T10:42:07.888Z,26.880188
2022-09-06T10:43:17.550Z,26.930542
2022-09-06T10:44:26.260Z,26.950684
2022-09-06T10:45:35.927Z,26.880188
2022-09-06T10:46:44.660Z,26.65863
2022-09-06T10:47:54.273Z,26.729126
2022-09-06T10:49:03.946Z,26.708984
2022-09-06T10:50:13.671Z,26.749268
2022-09-06T10:51:23.349Z,27.081604
2022-09-06T10:52:33.016Z,27.172241
2022-09-06T10:53:40.745Z,27.121887
2022-09-06T10:54:50.434Z,26.809692
2022-09-06T10:56:01.524Z,26.739197
2022-09-06T10:57:08.211Z,26.90033
2022-09-06T10:58:19.159Z,27.272949
2022-09-06T11:00:36.742Z,27.927551
2022-09-06T11:01:46.575Z,28.078613
2022-09-06T11:04:06.898Z,28.390808
2022-09-06T11:05:45.150Z,28.390808
2022-09-06T11:06:26.816Z,28.199463
2022-09-06T11:07:35.917Z,28.390808
2022-09-06T11:09:55.141Z,28.390808
2022-09-06T11:11:03.830Z,28.219604
2022-09-06T11:12:12.488Z,28.018188
2022-09-06T11:13:22.150Z,27.796631
2022-09-06T11:14:30.822Z,27.675781
2022-09-06T11:15:39.546Z,27.897339
2022-09-06T11:16:49.148Z,28.199463
2022-09-06T11:17:57.851Z,28.471375
2022-09-06T11:19:06.528Z,28.592224
2022-09-06T11:20:16.272Z,28.743286
2022-09-06T11:21:25.945Z,28.864136
2022-09-06T11:22:35.612Z,29.015198
2022-09-06T11:23:44.294Z,29.075623
2022-09-06T11:24:52.958Z,29.216614
2022-09-06T11:26:02.630Z,29.236755
2022-09-06T11:27:11.314Z,29.287109
2022-09-06T11:28:19.986Z,29.387817
2022-09-06T11:29:29.611Z,29.448242
2022-09-06T11:30:37.342Z,29.317322
2022-09-06T11:32:57.713Z,29.760437
2022-09-06T11:34:05.381Z,30.062561
2022-09-06T11:35:15.057Z,30.314331
2022-09-06T11:36:22.870Z,30.475464
2022-09-06T11:37:31.520Z,30.616455
2022-09-06T11:38:41.256Z,30.163269
2022-09-06T11:41:01.620Z,29.941711
2022-09-06T11:42:12.276Z,29.820862
2022-09-06T11:43:20.954Z,29.981995
2022-09-06T11:44:30.649Z,30.213623
2022-09-06T11:45:39.362Z,30.545959
2022-09-06T11:46:48.114Z,30.646667
2022-09-06T11:47:57.791Z,30.686951
2022-09-06T11:49:05.439Z,30.626526
2022-09-06T11:50:15.129Z,30.777588
2022-09-06T11:51:23.794Z,30.616455
2022-09-06T11:52:31.465Z,30.686951
2022-09-06T11:53:41.252Z,30.495605
2022-09-06T11:54:48.917Z,30.465393
2022-09-06T11:55:57.573Z,30.274048
2022-09-06T11:57:07.229Z,30.213623
2022-09-06T11:58:14.889Z,30.213623
2022-09-06T11:59:24.603Z,29.780579
2022-09-06T12:00:33.394Z,29.236755
2022-09-06T12:01:41.071Z,29.095764
2022-09-06T12:02:51.013Z,29.438171
2022-09-06T12:05:11.115Z,29.538879
2022-09-06T12:06:18.781Z,29.609375
2022-09-06T12:07:27.429Z,29.730225
2022-09-06T12:08:37.131Z,30.022278
2022-09-06T12:09:45.788Z,30.193481
2022-09-06T12:10:55.499Z,30.354614
2022-09-06T12:12:05.170Z,30.495605
2022-09-06T12:13:15.826Z,30.827942
2022-09-06T12:14:25.518Z,30.968933
2022-09-06T12:15:35.225Z,31.220703
2022-09-06T12:16:43.893Z,31.583252
2022-09-06T12:17:53.576Z,31.694031
2022-09-06T12:19:02.247Z,31.784668
2022-09-06T12:20:11.940Z,30.999146
2022-09-06T12:21:20.588Z,30.717163
2022-09-06T12:22:28.283Z,30.535889
2022-09-06T12:23:37.953Z,30.626526
2022-09-06T12:24:45.602Z,31.119995
2022-09-06T12:25:54.276Z,31.341553
2022-09-06T12:27:03.963Z,31.694031
2022-09-06T12:28:11.642Z,31.764526
2022-09-06T12:29:21.320Z,32.106934
2022-09-06T12:30:29.982Z,31.955872
2022-09-06T12:31:37.688Z,32.026367
2022-09-06T12:32:47.341Z,31.925659
2022-09-06T12:33:56.003Z,31.623535
2022-09-06T12:36:15.309Z,32.076721
2022-09-06T12:37:23.029Z,32.268066
2022-09-06T12:38:32.685Z,32.771606
2022-09-06T12:39:42.612Z,33.003235
2022-09-06T12:40:51.162Z,32.892456
2022-09-06T12:42:00.836Z,33.083801
2022-09-06T12:43:09.477Z,33.083801
2022-09-06T12:44:19.146Z,33.224792
2022-09-06T12:45:28.903Z,32.902527
2022-09-06T12:46:37.583Z,32.459412
2022-09-06T12:47:47.269Z,31.835022
2022-09-06T12:48:56.936Z,31.281128
2022-09-06T12:50:05.591Z,31.18042
2022-09-06T12:51:15.361Z,31.240845
2022-09-06T12:52:24.107Z,31.442261
2022-09-06T12:53:32.755Z,31.734314
2022-09-06T12:54:42.449Z,32.106934
2022-09-06T12:55:50.110Z,32.268066
2022-09-06T12:56:59.938Z,31.55304
2022-09-06T12:58:08.604Z,31.442261
2022-09-06T12:59:17.274Z,31.643677
2022-09-06T13:00:26.931Z,31.43219
2022-09-06T13:01:35.723Z,31.462402
2022-09-06T13:02:44.523Z,31.331482
2022-09-06T13:03:54.091Z,30.878296
2022-09-06T13:05:04.748Z,30.002136
2022-09-06T13:06:14.443Z,29.508667
2022-09-06T13:07:24.107Z,29.387817
2022-09-06T13:08:31.811Z,29.347534
2022-09-06T13:09:41.434Z,29.186401
2022-09-06T13:10:49.092Z,29.186401
2022-09-06T13:11:57.758Z,29.236755
2022-09-06T13:13:07.467Z,29.407959
2022-09-06T13:14:17.172Z,29.508667
2022-09-06T13:15:26.846Z,29.750366
2022-09-06T13:16:36.513Z,30.183411
2022-09-06T13:17:44.156Z,30.324402
2022-09-06T13:18:53.828Z,30.475464
2022-09-06T13:20:02.575Z,30.394897
2022-09-06T13:21:11.163Z,30.435181
2022-09-06T13:22:20.841Z,30.727234
2022-09-06T13:23:29.520Z,31.019287
2022-09-06T13:24:40.653Z,31.099854
2022-09-06T13:25:48.897Z,31.442261
2022-09-06T13:26:57.532Z,31.714172
2022-09-06T13:28:07.188Z,32.036438
2022-09-06T13:29:14.850Z,32.459412
2022-09-06T13:30:24.541Z,32.862244
2022-09-06T13:31:34.308Z,32.731323
2022-09-06T13:32:43.895Z,32.701111
2022-09-06T13:33:53.553Z,32.872314
2022-09-06T13:35:02.203Z,33.023376
2022-09-06T13:36:09.858Z,33.114014
2022-09-06T13:37:19.591Z,32.82196